Hovedside
METAR-TAF:

METAR-TAF

Lufthavner :

Saint-Louis, Senegal

breddegrad: 16-03N, lengdegrad: 016-27W, høyde over havet: 4 m

Gjeldene værobservasjon

Denne rapporten ble laget for 27 minutter siden, klokken 05:00 UTC
Vind 6 kt fra Nordvest, skiftende mellom Vest-nordvest og Nord-nordøst
Temperatur 22°C
Luftfuktighet 83%
Trykk 1009 hPa
Sikt 10 km eller mer
ingen skyer under 1500 m og ingen bygeskyer

METAR: GOSS 190500Z 32006KT 300V020 CAVOK 22/19 Q1009

Tid: 05:27 (05:27 UTC)

Varsel

Denne rapporten ble laget for 6 timer og 7 minutter siden, klokken 23:20 UTC
Varsel gyldig fra 19. klokken 00 UTC til 19. klokken 24 UTC
Vind 10 kt fra Nord-nordvest
Sikt 10 km eller mer
ingen skyer under 1500 m og ingen bygeskyer

TAF: GOSS 182320Z 1900/1924 34010KT CAVOK

Værobservasjoner og værvarsel for over 4000 flyplasser (METAR- og TAF-rapporter).

Tilgjengelige stasjoner er representert av de røde og gule prikkene på kartet.

Hold musepekeren over prikken for å se navnet på stasjonen.

Klikk så for å se værobservasjoner og -varsler.

For å forandre kartet kan du klikke på den grønne knappen med svart kryss for å zoome inn, på den grønne knappen med strek for å zoome ut, eller på de grønne pilene for å se tilstøtende kart.


METAR-TAF: